Sunnyside, WA

10:14 AM PDT on September 20, 2014 (GMT -0700)
MesoWest Gable Mountain WA US HMMN | Change Station
CLOSE
Current Station
Personal Weather Station
Location: Othello, WA
Elevation: 1085 ft
Nearby Weather Stations

Elev 1085 ft 46.60 °N, 119.46 °W | Updated 59 minutes ago

Clear
Clear
69 °F
Feels Like 69 °F
N
3
Wind Variable Wind from NNW
Gusts 5.0 mph

Today
High -- | Low -- °F
--% Chance of Precip.
Yesterday
High -- | Low -- °F
Precip. -- in
6:42 AM 6:59 PM
Waning Crescent, 11% visible
Pressure 30.14 in
Visibility 10.0 miles
Clouds Clear
Dew Point Not available.
Humidity Not available.
Rainfall -999.00 in
Snow Depth 0 in , 0 in , 0 in
UV 3 out of 12
Pollen 3.20 out of 12
Air Quality Not available.
Flu Activity Not available.
METAR KMWH 201652Z 01008KT 10SM CLR 22/08 A3015 RMK AO2 SLP207 T02170083

More Conditions Fewer Conditions

Pressure 30.14 in
Visibility 10.0 miles
Clouds Clear
Dew Point Not available.
Humidity Not available.
Rainfall -999.00 in
Snow Depth 0 in , 0 in , 0 in
UV 3 out of 12
Pollen 3.20 out of 12
Air Quality Not available.
Flu Activity Not available.
METAR KMWH 201652Z 01008KT 10SM CLR 22/08 A3015 RMK AO2 SLP207 T02170083

More Conditions Fewer Conditions

10-Day Weather Forecast

Almanac

Astronomy

Sep. 20, 2014 Rise Set
Actual Time 6:42 AM PDT 6:59 PM PDT
Civil Twilight 6:12 AM PDT 7:29 PM PDT
Nautical Twilight 5:36 AM PDT 8:04 PM PDT
Astronomical Twilight 4:59 AM PDT 8:41 PM PDT
Moon 3:16 AM PDT 5:13 PM PDT
Length of Visible Light 13h 17m
Length of Day
12h 17m
Tomorrow will be 3m 16s shorter.
Waning Crescent, 11% of the Moon is Illuminated
Today
Waning Crescent
Sep 24
New
Oct 1
First Quarter
Oct 8
Full
Oct 15
Last Quarter

Today's Extremes

State Highs State Lows

Community

WunderPhotos

Upload Photos

1,754,906 photos uploaded!

Nearby

Snow Depth

Station Depth Elevation
Pigtail Peak 0 in 5900 ft
Grouse Camp 0 in 5380 ft
White Pass E.S. 0 in 4500 ft
Park Creek Ridge 0 in 4600 ft
Alpine Meadows 0 in 3500 ft

Earthquake Activity

City Distance Mag. Time & Date
No recent earthquake activity has been reported nearby.
Minimum magnitude displayed is 2.5.

Coastal Water Temperatures

Place Temperature
No Stations Reporting

Nearby Weather Stations